RYS56N LBBG-EPKT
Flight info
| Callsign | RYS56N |
|---|---|
| Flight time | 1h 45m |
| Altitude | 36000 |
| Route | BUVAK T777 BALIK L619 ARGES DCT KARIL DCT KENIN DCT LENOV |
| Aircraft | B738/M-SDE2E3FGHIRWXY/LB1 |
Departure
| Time | 2026-04-29 15:31 |
|---|---|
| Airport | Burgas Airport (LBBG) |
Arrival
| Time | 2026-04-29 17:16 |
|---|---|
| Airport | Katowice Wojciech Korfanty International Airport (EPKT) |
| Time | Latitude | Longitude | Altitude | Speed | Heading |
|---|---|---|---|---|---|
| 2026-04-29 15:07 | 42.56440 | 27.51400 | 173 ft | 0 kts | 138° |
| 2026-04-29 15:21 | 42.56450 | 27.51388 | 172 ft | 4 kts | 138° |
| 2026-04-29 15:21 | 42.56470 | 27.51364 | 172 ft | 4 kts | 138° |
| 2026-04-29 15:22 | 42.56487 | 27.51345 | 172 ft | 4 kts | 153° |
| 2026-04-29 15:22 | 42.56511 | 27.51338 | 172 ft | 4 kts | 203° |
| 2026-04-29 15:22 | 42.56531 | 27.51359 | 172 ft | 4 kts | 229° |
| 2026-04-29 15:22 | 42.56536 | 27.51367 | 172 ft | 0 kts | 230° |
| 2026-04-29 15:26 | 42.56520 | 27.51341 | 172 ft | 7 kts | 230° |
| 2026-04-29 15:26 | 42.56469 | 27.51260 | 172 ft | 15 kts | 229° |
| 2026-04-29 15:26 | 42.56395 | 27.51152 | 172 ft | 16 kts | 227° |
| 2026-04-29 15:26 | 42.56324 | 27.51045 | 172 ft | 15 kts | 229° |
| 2026-04-29 15:27 | 42.56258 | 27.50943 | 172 ft | 14 kts | 228° |
| 2026-04-29 15:27 | 42.56191 | 27.50846 | 172 ft | 14 kts | 227° |
| 2026-04-29 15:27 | 42.56129 | 27.50752 | 172 ft | 13 kts | 229° |
| 2026-04-29 15:27 | 42.56070 | 27.50661 | 172 ft | 13 kts | 228° |
| 2026-04-29 15:28 | 42.56011 | 27.50572 | 172 ft | 12 kts | 228° |
| 2026-04-29 15:28 | 42.55973 | 27.50516 | 172 ft | 12 kts | 227° |
| 2026-04-29 15:28 | 42.55899 | 27.50403 | 172 ft | 12 kts | 231° |
| 2026-04-29 15:28 | 42.55917 | 27.50306 | 172 ft | 11 kts | 311° |
| 2026-04-29 15:29 | 42.55973 | 27.50230 | 171 ft | 11 kts | 313° |
| 2026-04-29 15:29 | 42.56036 | 27.50235 | 171 ft | 0 kts | 43° |
| 2026-04-29 15:30 | 42.56038 | 27.50237 | 171 ft | 2 kts | 43° |
| 2026-04-29 15:30 | 42.56139 | 27.50370 | 172 ft | 52 kts | 44° |
| 2026-04-29 15:30 | 42.56568 | 27.50940 | 172 ft | 119 kts | 44° |
| 2026-04-29 15:31 | 42.57024 | 27.51537 | 179 ft | 155 kts | 48° |
| 2026-04-29 15:31 | 42.57848 | 27.52607 | 647 ft | 166 kts | 47° |
| 2026-04-29 15:31 | 42.58730 | 27.53656 | 1269 ft | 173 kts | 37° |
| 2026-04-29 15:31 | 42.59812 | 27.54480 | 1670 ft | 190 kts | 32° |
| 2026-04-29 15:32 | 42.61039 | 27.55386 | 1910 ft | 210 kts | 30° |
| 2026-04-29 15:32 | 42.62519 | 27.55825 | 2002 ft | 230 kts | 354° |
| 2026-04-29 15:32 | 42.64119 | 27.55343 | 2190 ft | 239 kts | 347° |
| 2026-04-29 15:32 | 42.65751 | 27.54790 | 2380 ft | 247 kts | 346° |
| 2026-04-29 15:33 | 42.67418 | 27.54229 | 2802 ft | 245 kts | 346° |
| 2026-04-29 15:33 | 42.69121 | 27.53660 | 2865 ft | 260 kts | 345° |
| 2026-04-29 15:33 | 42.70915 | 27.53063 | 3163 ft | 267 kts | 346° |
| 2026-04-29 15:33 | 42.72736 | 27.52462 | 3550 ft | 271 kts | 345° |
| 2026-04-29 15:34 | 42.74528 | 27.51872 | 4130 ft | 267 kts | 345° |
| 2026-04-29 15:34 | 42.76298 | 27.51291 | 4801 ft | 259 kts | 345° |
| 2026-04-29 15:34 | 42.78065 | 27.50711 | 5173 ft | 263 kts | 345° |
| 2026-04-29 15:34 | 42.79862 | 27.50121 | 5501 ft | 267 kts | 345° |
| 2026-04-29 15:35 | 42.81669 | 27.49528 | 5941 ft | 267 kts | 345° |
| 2026-04-29 15:35 | 42.83488 | 27.48931 | 6310 ft | 270 kts | 344° |
| 2026-04-29 15:35 | 42.85313 | 27.48333 | 6702 ft | 270 kts | 344° |
| 2026-04-29 15:35 | 42.87125 | 27.47739 | 7089 ft | 271 kts | 344° |
| 2026-04-29 15:36 | 42.88956 | 27.47138 | 7486 ft | 271 kts | 344° |
| 2026-04-29 15:36 | 42.90796 | 27.46533 | 7848 ft | 272 kts | 343° |
| 2026-04-29 15:36 | 42.92645 | 27.45926 | 8259 ft | 272 kts | 343° |
| 2026-04-29 15:36 | 42.94482 | 27.45321 | 8653 ft | 271 kts | 343° |
| 2026-04-29 15:37 | 42.96322 | 27.44716 | 8981 ft | 274 kts | 342° |
| 2026-04-29 15:37 | 42.98177 | 27.44104 | 9574 ft | 274 kts | 342° |
| 2026-04-29 15:37 | 43.00061 | 27.43543 | 10263 ft | 280 kts | 345° |
| 2026-04-29 15:37 | 43.02061 | 27.43107 | 10463 ft | 303 kts | 347° |
| 2026-04-29 15:38 | 43.04225 | 27.42684 | 10628 ft | 323 kts | 347° |
| 2026-04-29 15:38 | 43.06521 | 27.42242 | 10821 ft | 342 kts | 347° |
| 2026-04-29 15:38 | 43.08906 | 27.41781 | 11316 ft | 349 kts | 347° |
| 2026-04-29 15:38 | 43.11294 | 27.41314 | 11941 ft | 352 kts | 347° |
| 2026-04-29 15:39 | 43.13730 | 27.40831 | 12636 ft | 354 kts | 347° |
| 2026-04-29 15:39 | 43.16171 | 27.40342 | 13351 ft | 356 kts | 347° |
| 2026-04-29 15:39 | 43.18642 | 27.39842 | 13963 ft | 361 kts | 347° |
| 2026-04-29 15:39 | 43.21146 | 27.39333 | 14562 ft | 365 kts | 347° |
| 2026-04-29 15:40 | 43.23665 | 27.38823 | 15266 ft | 366 kts | 346° |
| 2026-04-29 15:40 | 43.26186 | 27.38310 | 15938 ft | 367 kts | 346° |
| 2026-04-29 15:40 | 43.28720 | 27.37794 | 16603 ft | 370 kts | 346° |
| 2026-04-29 15:40 | 43.31278 | 27.37281 | 17203 ft | 373 kts | 346° |
| 2026-04-29 15:41 | 43.33838 | 27.36771 | 17834 ft | 377 kts | 346° |
| 2026-04-29 15:41 | 43.36439 | 27.36254 | 18434 ft | 380 kts | 346° |
| 2026-04-29 15:41 | 43.39063 | 27.35733 | 19000 ft | 381 kts | 346° |
| 2026-04-29 15:41 | 43.41695 | 27.35210 | 19579 ft | 383 kts | 346° |
| 2026-04-29 15:42 | 43.44335 | 27.34683 | 20113 ft | 385 kts | 346° |
| 2026-04-29 15:42 | 43.46997 | 27.34152 | 20630 ft | 387 kts | 346° |
| 2026-04-29 15:42 | 43.49679 | 27.33615 | 21152 ft | 390 kts | 346° |
| 2026-04-29 15:42 | 43.52377 | 27.33075 | 21672 ft | 392 kts | 346° |
| 2026-04-29 15:43 | 43.55086 | 27.32533 | 22171 ft | 394 kts | 346° |
| 2026-04-29 15:43 | 43.57812 | 27.31986 | 22645 ft | 397 kts | 345° |
| 2026-04-29 15:43 | 43.60525 | 27.31441 | 23110 ft | 400 kts | 345° |
| 2026-04-29 15:43 | 43.63290 | 27.30883 | 23519 ft | 404 kts | 344° |
| 2026-04-29 15:44 | 43.66000 | 27.29963 | 23926 ft | 398 kts | 334° |
| 2026-04-29 15:44 | 43.68511 | 27.28428 | 24349 ft | 393 kts | 327° |
| 2026-04-29 15:44 | 43.70826 | 27.26462 | 24806 ft | 388 kts | 318° |
| 2026-04-29 15:44 | 43.72906 | 27.24104 | 25212 ft | 387 kts | 316° |
| 2026-04-29 15:45 | 43.74965 | 27.21683 | 25556 ft | 389 kts | 315° |
| 2026-04-29 15:45 | 43.77034 | 27.19242 | 25904 ft | 391 kts | 315° |
| 2026-04-29 15:45 | 43.79113 | 27.16794 | 26247 ft | 393 kts | 315° |
| 2026-04-29 15:45 | 43.81208 | 27.14337 | 26610 ft | 395 kts | 315° |
| 2026-04-29 15:46 | 43.83294 | 27.11896 | 26941 ft | 397 kts | 315° |
| 2026-04-29 15:46 | 43.85403 | 27.09434 | 27315 ft | 398 kts | 315° |
| 2026-04-29 15:46 | 43.87533 | 27.06947 | 27686 ft | 399 kts | 315° |
| 2026-04-29 15:46 | 43.89664 | 27.04458 | 28039 ft | 400 kts | 315° |
| 2026-04-29 15:47 | 43.91797 | 27.01964 | 28347 ft | 402 kts | 315° |
| 2026-04-29 15:47 | 43.93938 | 26.99458 | 28700 ft | 402 kts | 315° |
| 2026-04-29 15:47 | 43.96074 | 26.96957 | 29182 ft | 400 kts | 315° |
| 2026-04-29 15:47 | 43.98165 | 26.94507 | 29697 ft | 397 kts | 315° |
| 2026-04-29 15:48 | 44.00266 | 26.92040 | 30134 ft | 395 kts | 315° |
| 2026-04-29 15:48 | 44.02365 | 26.89573 | 30476 ft | 395 kts | 315° |
| 2026-04-29 15:48 | 44.04463 | 26.87106 | 30847 ft | 393 kts | 315° |
| 2026-04-29 15:48 | 44.06547 | 26.84653 | 31253 ft | 391 kts | 314° |
| 2026-04-29 15:49 | 44.08613 | 26.82221 | 31655 ft | 389 kts | 315° |
| 2026-04-29 15:49 | 44.10720 | 26.79853 | 32032 ft | 388 kts | 316° |
| 2026-04-29 15:49 | 44.12847 | 26.77550 | 32361 ft | 388 kts | 317° |
| 2026-04-29 15:49 | 44.14982 | 26.75266 | 32746 ft | 386 kts | 316° |
| 2026-04-29 15:50 | 44.17106 | 26.72995 | 33244 ft | 381 kts | 316° |
| 2026-04-29 15:50 | 44.19197 | 26.70751 | 33653 ft | 378 kts | 316° |
| 2026-04-29 15:50 | 44.21279 | 26.68504 | 33899 ft | 379 kts | 316° |
| 2026-04-29 15:50 | 44.23360 | 26.66248 | 34127 ft | 380 kts | 316° |
| 2026-04-29 15:51 | 44.25450 | 26.63975 | 34349 ft | 380 kts | 316° |
| 2026-04-29 15:51 | 44.27512 | 26.61729 | 34527 ft | 381 kts | 316° |
| 2026-04-29 15:51 | 44.29606 | 26.59444 | 34711 ft | 382 kts | 316° |
| 2026-04-29 15:51 | 44.31703 | 26.57153 | 34920 ft | 383 kts | 316° |
| 2026-04-29 15:52 | 44.33812 | 26.54848 | 35095 ft | 384 kts | 316° |
| 2026-04-29 15:52 | 44.38046 | 26.50209 | 35134 ft | 388 kts | 316° |
| 2026-04-29 15:53 | 44.42285 | 26.45562 | 35124 ft | 384 kts | 316° |
| 2026-04-29 15:53 | 44.46446 | 26.40993 | 35152 ft | 382 kts | 316° |
| 2026-04-29 15:54 | 44.50631 | 26.36385 | 35146 ft | 381 kts | 315° |
| 2026-04-29 15:54 | 44.54791 | 26.31793 | 35157 ft | 382 kts | 315° |
| 2026-04-29 15:55 | 44.58974 | 26.27164 | 35382 ft | 386 kts | 316° |
| 2026-04-29 15:55 | 44.61093 | 26.24819 | 35609 ft | 386 kts | 316° |
| 2026-04-29 15:55 | 44.63206 | 26.22479 | 35784 ft | 387 kts | 316° |
| 2026-04-29 15:55 | 44.65329 | 26.20124 | 35927 ft | 389 kts | 316° |
| 2026-04-29 15:56 | 44.67422 | 26.17802 | 36102 ft | 388 kts | 316° |
| 2026-04-29 15:56 | 44.71686 | 26.13060 | 36152 ft | 392 kts | 316° |
| 2026-04-29 15:57 | 44.75970 | 26.08290 | 36168 ft | 393 kts | 316° |
| 2026-04-29 15:57 | 44.80268 | 26.03494 | 36163 ft | 395 kts | 316° |
| 2026-04-29 15:58 | 44.84583 | 25.98668 | 36153 ft | 396 kts | 316° |
| 2026-04-29 15:58 | 44.88906 | 25.93826 | 36156 ft | 397 kts | 316° |
| 2026-04-29 15:59 | 44.93235 | 25.88968 | 36154 ft | 396 kts | 316° |
| 2026-04-29 15:59 | 44.97514 | 25.84155 | 36154 ft | 395 kts | 316° |
| 2026-04-29 16:00 | 45.01814 | 25.79309 | 36181 ft | 395 kts | 316° |
| 2026-04-29 16:00 | 45.06111 | 25.74456 | 36163 ft | 395 kts | 317° |
| 2026-04-29 16:01 | 45.10408 | 25.69594 | 36167 ft | 395 kts | 317° |
| 2026-04-29 16:01 | 45.14680 | 25.64751 | 36152 ft | 395 kts | 316° |
| 2026-04-29 16:02 | 45.18968 | 25.59880 | 36143 ft | 395 kts | 316° |
| 2026-04-29 16:02 | 45.23261 | 25.54994 | 36136 ft | 394 kts | 316° |
| 2026-04-29 16:03 | 45.27531 | 25.50124 | 36142 ft | 393 kts | 316° |
| 2026-04-29 16:03 | 45.31768 | 25.45282 | 36135 ft | 393 kts | 316° |
| 2026-04-29 16:04 | 45.36020 | 25.40413 | 36130 ft | 392 kts | 316° |
| 2026-04-29 16:04 | 45.40267 | 25.35540 | 36132 ft | 392 kts | 316° |
| 2026-04-29 16:05 | 45.44506 | 25.30667 | 36121 ft | 391 kts | 316° |
| 2026-04-29 16:05 | 45.48711 | 25.25824 | 36123 ft | 391 kts | 316° |
| 2026-04-29 16:06 | 45.52954 | 25.20924 | 36126 ft | 391 kts | 316° |
| 2026-04-29 16:06 | 45.57197 | 25.16017 | 36124 ft | 393 kts | 316° |
| 2026-04-29 16:07 | 45.61415 | 25.11129 | 36128 ft | 394 kts | 316° |
| 2026-04-29 16:07 | 45.65675 | 25.06183 | 36126 ft | 394 kts | 316° |
| 2026-04-29 16:08 | 45.69942 | 25.01218 | 36112 ft | 394 kts | 316° |
| 2026-04-29 16:08 | 45.74175 | 24.96283 | 36107 ft | 394 kts | 316° |
| 2026-04-29 16:09 | 45.78421 | 24.91324 | 36101 ft | 394 kts | 316° |
| 2026-04-29 16:09 | 45.82662 | 24.86359 | 36098 ft | 393 kts | 316° |
| 2026-04-29 16:10 | 45.86903 | 24.81384 | 36094 ft | 393 kts | 316° |
| 2026-04-29 16:10 | 45.91141 | 24.76402 | 36111 ft | 393 kts | 316° |
| 2026-04-29 16:11 | 45.95344 | 24.71452 | 36101 ft | 393 kts | 316° |
| 2026-04-29 16:11 | 45.99575 | 24.66459 | 36087 ft | 393 kts | 316° |
| 2026-04-29 16:12 | 46.03810 | 24.61451 | 36085 ft | 393 kts | 316° |
| 2026-04-29 16:12 | 46.08039 | 24.56440 | 36083 ft | 394 kts | 316° |
| 2026-04-29 16:13 | 46.12244 | 24.51446 | 36098 ft | 394 kts | 316° |
| 2026-04-29 16:13 | 46.16480 | 24.46405 | 36099 ft | 394 kts | 316° |
| 2026-04-29 16:14 | 46.20719 | 24.41351 | 36088 ft | 395 kts | 316° |
| 2026-04-29 16:14 | 46.24956 | 24.36290 | 36091 ft | 395 kts | 316° |
| 2026-04-29 16:15 | 46.29190 | 24.31220 | 36099 ft | 395 kts | 316° |
| 2026-04-29 16:15 | 46.33407 | 24.26161 | 36101 ft | 396 kts | 316° |
| 2026-04-29 16:16 | 46.37646 | 24.21064 | 36106 ft | 396 kts | 316° |
| 2026-04-29 16:16 | 46.41895 | 24.15945 | 36102 ft | 396 kts | 316° |
| 2026-04-29 16:17 | 46.46127 | 24.10835 | 36106 ft | 396 kts | 316° |
| 2026-04-29 16:17 | 46.50364 | 24.05709 | 36126 ft | 396 kts | 316° |
| 2026-04-29 16:18 | 46.54571 | 24.00610 | 36122 ft | 396 kts | 316° |
| 2026-04-29 16:18 | 46.58799 | 23.95474 | 36116 ft | 396 kts | 316° |
| 2026-04-29 16:19 | 46.62338 | 23.91166 | 36124 ft | 395 kts | 316° |
| 2026-04-29 16:19 | 46.66531 | 23.86051 | 36127 ft | 395 kts | 316° |
| 2026-04-29 16:20 | 46.70746 | 23.80900 | 36127 ft | 395 kts | 316° |
| 2026-04-29 16:20 | 46.74953 | 23.75748 | 36129 ft | 394 kts | 316° |
| 2026-04-29 16:21 | 46.79157 | 23.70589 | 36132 ft | 394 kts | 316° |
| 2026-04-29 16:21 | 46.83330 | 23.65455 | 36142 ft | 395 kts | 316° |
| 2026-04-29 16:22 | 46.87535 | 23.60271 | 36135 ft | 395 kts | 316° |
| 2026-04-29 16:22 | 46.91733 | 23.55086 | 36130 ft | 395 kts | 316° |
| 2026-04-29 16:23 | 46.95939 | 23.49880 | 36131 ft | 396 kts | 316° |
| 2026-04-29 16:23 | 47.00145 | 23.44662 | 36138 ft | 396 kts | 316° |
| 2026-04-29 16:24 | 47.04357 | 23.39426 | 36145 ft | 397 kts | 316° |
| 2026-04-29 16:24 | 47.08557 | 23.34194 | 36149 ft | 397 kts | 316° |
| 2026-04-29 16:25 | 47.12787 | 23.28913 | 36152 ft | 399 kts | 316° |
| 2026-04-29 16:25 | 47.17013 | 23.23626 | 36156 ft | 399 kts | 316° |
| 2026-04-29 16:26 | 47.21245 | 23.18320 | 36169 ft | 399 kts | 316° |
| 2026-04-29 16:26 | 47.25444 | 23.13042 | 36165 ft | 399 kts | 316° |
| 2026-04-29 16:27 | 47.29667 | 23.07725 | 36163 ft | 399 kts | 316° |
| 2026-04-29 16:27 | 47.33890 | 23.02394 | 36170 ft | 399 kts | 316° |
| 2026-04-29 16:28 | 47.38110 | 22.97057 | 36173 ft | 399 kts | 316° |
| 2026-04-29 16:28 | 47.42295 | 22.91752 | 36179 ft | 399 kts | 316° |
| 2026-04-29 16:29 | 47.46509 | 22.86399 | 36183 ft | 400 kts | 316° |
| 2026-04-29 16:29 | 47.50731 | 22.81023 | 36183 ft | 400 kts | 316° |
| 2026-04-29 16:30 | 47.54951 | 22.75638 | 36188 ft | 400 kts | 316° |
| 2026-04-29 16:30 | 47.59169 | 22.70244 | 36180 ft | 400 kts | 316° |
| 2026-04-29 16:31 | 47.63381 | 22.64846 | 36190 ft | 400 kts | 316° |
| 2026-04-29 16:31 | 47.67560 | 22.59477 | 36190 ft | 400 kts | 316° |
| 2026-04-29 16:32 | 47.71773 | 22.54052 | 36230 ft | 401 kts | 316° |
| 2026-04-29 16:32 | 47.75999 | 22.48601 | 36216 ft | 402 kts | 316° |
| 2026-04-29 16:33 | 47.82691 | 22.41144 | 36216 ft | 405 kts | 325° |
| 2026-04-29 16:33 | 47.87569 | 22.36831 | 36209 ft | 405 kts | 325° |
| 2026-04-29 16:34 | 47.92361 | 22.32561 | 36208 ft | 404 kts | 325° |
| 2026-04-29 16:34 | 47.97176 | 22.28234 | 36209 ft | 403 kts | 325° |
| 2026-04-29 16:35 | 48.01967 | 22.23907 | 36229 ft | 402 kts | 325° |
| 2026-04-29 16:35 | 48.06761 | 22.19566 | 36223 ft | 402 kts | 325° |
| 2026-04-29 16:36 | 48.11515 | 22.15252 | 36229 ft | 402 kts | 325° |
| 2026-04-29 16:36 | 48.16302 | 22.10900 | 36227 ft | 402 kts | 325° |
| 2026-04-29 16:37 | 48.21092 | 22.06535 | 36235 ft | 402 kts | 325° |
| 2026-04-29 16:37 | 48.25072 | 22.02900 | 36233 ft | 403 kts | 324° |
| 2026-04-29 16:38 | 48.30652 | 21.97793 | 36241 ft | 404 kts | 325° |
| 2026-04-29 16:38 | 48.35463 | 21.93380 | 36242 ft | 405 kts | 325° |
| 2026-04-29 16:39 | 48.40287 | 21.88943 | 36245 ft | 406 kts | 325° |
| 2026-04-29 16:39 | 48.45086 | 21.84515 | 36244 ft | 408 kts | 325° |
| 2026-04-29 16:40 | 48.49930 | 21.80035 | 36246 ft | 409 kts | 325° |
| 2026-04-29 16:40 | 48.54788 | 21.75531 | 36258 ft | 410 kts | 325° |
| 2026-04-29 16:41 | 48.59660 | 21.71004 | 36261 ft | 412 kts | 325° |
| 2026-04-29 16:41 | 48.64548 | 21.66453 | 36270 ft | 413 kts | 325° |
| 2026-04-29 16:42 | 48.69461 | 21.61867 | 36267 ft | 415 kts | 325° |
| 2026-04-29 16:42 | 48.74385 | 21.57260 | 36276 ft | 415 kts | 325° |
| 2026-04-29 16:43 | 48.79281 | 21.52670 | 36274 ft | 416 kts | 325° |
| 2026-04-29 16:43 | 48.84213 | 21.48034 | 36277 ft | 417 kts | 325° |
| 2026-04-29 16:44 | 48.89156 | 21.43376 | 36281 ft | 419 kts | 326° |
| 2026-04-29 16:44 | 48.94115 | 21.38693 | 36281 ft | 420 kts | 326° |
| 2026-04-29 16:45 | 48.99086 | 21.33987 | 36286 ft | 421 kts | 326° |
| 2026-04-29 16:45 | 49.04044 | 21.29283 | 36282 ft | 422 kts | 326° |
| 2026-04-29 16:46 | 49.09044 | 21.24528 | 36279 ft | 422 kts | 326° |
| 2026-04-29 16:46 | 49.14032 | 21.19772 | 36265 ft | 422 kts | 326° |
| 2026-04-29 16:47 | 49.19008 | 21.15015 | 36280 ft | 421 kts | 326° |
| 2026-04-29 16:47 | 49.23980 | 21.10251 | 36286 ft | 422 kts | 326° |
| 2026-04-29 16:48 | 49.28934 | 21.05494 | 36020 ft | 425 kts | 326° |
| 2026-04-29 16:48 | 49.31420 | 21.03037 | 35780 ft | 421 kts | 322° |
| 2026-04-29 16:48 | 49.33654 | 21.00155 | 35538 ft | 418 kts | 314° |
| 2026-04-29 16:49 | 49.35607 | 20.96855 | 35309 ft | 418 kts | 306° |
| 2026-04-29 16:49 | 49.37304 | 20.93231 | 35081 ft | 418 kts | 305° |
| 2026-04-29 16:49 | 49.38982 | 20.89562 | 34845 ft | 419 kts | 305° |
| 2026-04-29 16:49 | 49.40655 | 20.85887 | 34620 ft | 420 kts | 305° |
| 2026-04-29 16:50 | 49.42328 | 20.82219 | 34401 ft | 420 kts | 305° |
| 2026-04-29 16:50 | 49.44010 | 20.78541 | 34171 ft | 421 kts | 305° |
| 2026-04-29 16:50 | 49.45676 | 20.74905 | 33504 ft | 421 kts | 306° |
| 2026-04-29 16:50 | 49.47363 | 20.71229 | 32879 ft | 419 kts | 306° |
| 2026-04-29 16:51 | 49.49034 | 20.67588 | 32437 ft | 414 kts | 306° |
| 2026-04-29 16:51 | 49.50689 | 20.63979 | 31916 ft | 410 kts | 305° |
| 2026-04-29 16:51 | 49.52324 | 20.60411 | 31463 ft | 404 kts | 305° |
| 2026-04-29 16:51 | 49.53937 | 20.56886 | 31005 ft | 398 kts | 305° |
| 2026-04-29 16:52 | 49.55501 | 20.53464 | 30560 ft | 393 kts | 304° |
| 2026-04-29 16:52 | 49.57063 | 20.50043 | 30084 ft | 388 kts | 304° |
| 2026-04-29 16:52 | 49.58600 | 20.46672 | 29618 ft | 381 kts | 304° |
| 2026-04-29 16:52 | 49.60108 | 20.43359 | 29170 ft | 374 kts | 304° |
| 2026-04-29 16:53 | 49.61589 | 20.40102 | 28731 ft | 367 kts | 304° |
| 2026-04-29 16:53 | 49.63043 | 20.36899 | 28301 ft | 361 kts | 304° |
| 2026-04-29 16:53 | 49.64470 | 20.33752 | 27886 ft | 355 kts | 304° |
| 2026-04-29 16:53 | 49.65877 | 20.30646 | 27473 ft | 350 kts | 304° |
| 2026-04-29 16:54 | 49.67262 | 20.27586 | 27073 ft | 344 kts | 304° |
| 2026-04-29 16:54 | 49.68624 | 20.24573 | 26670 ft | 340 kts | 304° |
| 2026-04-29 16:54 | 49.69970 | 20.21590 | 26260 ft | 336 kts | 304° |
| 2026-04-29 16:54 | 49.71302 | 20.18635 | 25869 ft | 333 kts | 304° |
| 2026-04-29 16:55 | 49.72605 | 20.15741 | 25486 ft | 331 kts | 304° |
| 2026-04-29 16:55 | 49.73921 | 20.12817 | 25085 ft | 329 kts | 304° |
| 2026-04-29 16:55 | 49.75232 | 20.09900 | 24701 ft | 333 kts | 304° |
| 2026-04-29 16:55 | 49.76575 | 20.06907 | 24304 ft | 342 kts | 304° |
| 2026-04-29 16:56 | 49.77931 | 20.03881 | 23893 ft | 341 kts | 304° |
| 2026-04-29 16:56 | 49.79277 | 20.00877 | 23436 ft | 337 kts | 304° |
| 2026-04-29 16:56 | 49.80584 | 19.97955 | 23033 ft | 332 kts | 304° |
| 2026-04-29 16:56 | 49.81889 | 19.95036 | 22649 ft | 327 kts | 304° |
| 2026-04-29 16:57 | 49.83175 | 19.92155 | 22238 ft | 323 kts | 304° |
| 2026-04-29 16:57 | 49.84447 | 19.89304 | 21869 ft | 319 kts | 304° |
| 2026-04-29 16:57 | 49.85702 | 19.86483 | 21464 ft | 318 kts | 306° |
| 2026-04-29 16:57 | 49.86962 | 19.83653 | 21051 ft | 319 kts | 307° |
| 2026-04-29 16:58 | 49.88222 | 19.80818 | 20672 ft | 320 kts | 307° |
| 2026-04-29 16:58 | 49.89506 | 19.77930 | 20289 ft | 332 kts | 307° |
| 2026-04-29 16:58 | 49.90843 | 19.74921 | 19889 ft | 343 kts | 307° |
| 2026-04-29 16:58 | 49.92197 | 19.71865 | 19500 ft | 342 kts | 307° |
| 2026-04-29 16:59 | 49.93517 | 19.68879 | 19098 ft | 339 kts | 307° |
| 2026-04-29 16:59 | 49.94845 | 19.65872 | 18658 ft | 336 kts | 307° |
| 2026-04-29 16:59 | 49.96169 | 19.62873 | 18206 ft | 334 kts | 307° |
| 2026-04-29 16:59 | 49.97474 | 19.59912 | 17812 ft | 330 kts | 307° |
| 2026-04-29 17:00 | 49.98765 | 19.56980 | 17419 ft | 327 kts | 307° |
| 2026-04-29 17:00 | 50.00043 | 19.54073 | 17033 ft | 324 kts | 307° |
| 2026-04-29 17:00 | 50.01310 | 19.51191 | 16639 ft | 321 kts | 307° |
| 2026-04-29 17:00 | 50.02563 | 19.48339 | 16262 ft | 318 kts | 307° |
| 2026-04-29 17:01 | 50.03805 | 19.45507 | 15826 ft | 317 kts | 307° |
| 2026-04-29 17:01 | 50.05065 | 19.42636 | 15199 ft | 323 kts | 307° |
| 2026-04-29 17:01 | 50.06316 | 19.39780 | 14761 ft | 322 kts | 307° |
| 2026-04-29 17:01 | 50.07571 | 19.36908 | 14363 ft | 321 kts | 307° |
| 2026-04-29 17:02 | 50.08825 | 19.34037 | 13960 ft | 319 kts | 307° |
| 2026-04-29 17:02 | 50.10067 | 19.31187 | 13550 ft | 316 kts | 307° |
| 2026-04-29 17:02 | 50.11297 | 19.28364 | 13174 ft | 314 kts | 307° |
| 2026-04-29 17:02 | 50.12520 | 19.25554 | 12788 ft | 311 kts | 307° |
| 2026-04-29 17:03 | 50.13731 | 19.22770 | 12402 ft | 309 kts | 307° |
| 2026-04-29 17:03 | 50.14527 | 19.20935 | 12160 ft | 308 kts | 307° |
| 2026-04-29 17:03 | 50.15726 | 19.18173 | 11786 ft | 306 kts | 307° |
| 2026-04-29 17:03 | 50.17302 | 19.14540 | 11298 ft | 304 kts | 307° |
| 2026-04-29 17:04 | 50.18102 | 19.12693 | 11040 ft | 303 kts | 307° |
| 2026-04-29 17:04 | 50.19280 | 19.09971 | 10679 ft | 302 kts | 308° |
| 2026-04-29 17:04 | 50.20452 | 19.07260 | 10385 ft | 298 kts | 307° |
| 2026-04-29 17:04 | 50.21578 | 19.04648 | 10279 ft | 289 kts | 308° |
| 2026-04-29 17:05 | 50.22687 | 19.02074 | 10140 ft | 281 kts | 308° |
| 2026-04-29 17:05 | 50.23765 | 18.99572 | 10006 ft | 273 kts | 308° |
| 2026-04-29 17:05 | 50.24810 | 18.97145 | 9791 ft | 268 kts | 308° |
| 2026-04-29 17:05 | 50.25848 | 18.94734 | 9530 ft | 265 kts | 308° |
| 2026-04-29 17:06 | 50.26879 | 18.92339 | 9238 ft | 264 kts | 308° |
| 2026-04-29 17:06 | 50.27896 | 18.89972 | 8972 ft | 262 kts | 308° |
| 2026-04-29 17:06 | 50.28910 | 18.87611 | 8692 ft | 260 kts | 308° |
| 2026-04-29 17:06 | 50.29908 | 18.85284 | 8415 ft | 259 kts | 308° |
| 2026-04-29 17:07 | 50.30910 | 18.82944 | 8136 ft | 258 kts | 307° |
| 2026-04-29 17:07 | 50.31905 | 18.80619 | 7872 ft | 257 kts | 307° |
| 2026-04-29 17:07 | 50.32899 | 18.78295 | 7601 ft | 256 kts | 307° |
| 2026-04-29 17:07 | 50.33875 | 18.76011 | 7333 ft | 255 kts | 307° |
| 2026-04-29 17:08 | 50.34847 | 18.73733 | 7178 ft | 248 kts | 307° |
| 2026-04-29 17:08 | 50.35801 | 18.71496 | 6930 ft | 245 kts | 308° |
| 2026-04-29 17:08 | 50.36733 | 18.69305 | 6823 ft | 237 kts | 307° |
| 2026-04-29 17:08 | 50.37635 | 18.67186 | 6746 ft | 231 kts | 307° |
| 2026-04-29 17:09 | 50.38639 | 18.65273 | 6619 ft | 226 kts | 328° |
| 2026-04-29 17:09 | 50.40080 | 18.64458 | 6392 ft | 221 kts | 355° |
| 2026-04-29 17:09 | 50.41617 | 18.64360 | 6144 ft | 222 kts | 2° |
| 2026-04-29 17:09 | 50.43165 | 18.64373 | 5882 ft | 223 kts | 2° |
| 2026-04-29 17:10 | 50.44718 | 18.64400 | 5632 ft | 223 kts | 5° |
| 2026-04-29 17:10 | 50.46151 | 18.65155 | 5382 ft | 219 kts | 39° |
| 2026-04-29 17:10 | 50.46928 | 18.67162 | 5178 ft | 217 kts | 72° |
| 2026-04-29 17:10 | 50.47259 | 18.69417 | 4956 ft | 207 kts | 75° |
| 2026-04-29 17:11 | 50.47475 | 18.71568 | 4831 ft | 193 kts | 79° |
| 2026-04-29 17:11 | 50.47612 | 18.73620 | 4634 ft | 184 kts | 82° |
| 2026-04-29 17:11 | 50.47670 | 18.75588 | 4460 ft | 178 kts | 84° |
| 2026-04-29 17:11 | 50.47688 | 18.77482 | 4273 ft | 175 kts | 85° |
| 2026-04-29 17:12 | 50.47691 | 18.79383 | 4090 ft | 174 kts | 85° |
| 2026-04-29 17:12 | 50.47688 | 18.81299 | 3908 ft | 176 kts | 86° |
| 2026-04-29 17:12 | 50.47680 | 18.83227 | 3718 ft | 176 kts | 86° |
| 2026-04-29 17:12 | 50.47675 | 18.84499 | 3590 ft | 175 kts | 85° |
| 2026-04-29 17:13 | 50.47665 | 18.87040 | 3363 ft | 176 kts | 85° |
| 2026-04-29 17:13 | 50.47657 | 18.88966 | 3133 ft | 175 kts | 85° |
| 2026-04-29 17:13 | 50.47649 | 18.90834 | 2899 ft | 165 kts | 85° |
| 2026-04-29 17:13 | 50.47641 | 18.92563 | 2734 ft | 151 kts | 85° |
| 2026-04-29 17:14 | 50.47636 | 18.94217 | 2504 ft | 150 kts | 84° |
| 2026-04-29 17:14 | 50.47632 | 18.95833 | 2294 ft | 146 kts | 84° |
| 2026-04-29 17:14 | 50.47632 | 18.97421 | 2107 ft | 145 kts | 84° |
| 2026-04-29 17:14 | 50.47634 | 18.99026 | 1912 ft | 149 kts | 85° |
| 2026-04-29 17:15 | 50.47640 | 19.00628 | 1706 ft | 150 kts | 83° |
| 2026-04-29 17:15 | 50.47636 | 19.02267 | 1499 ft | 150 kts | 86° |
| 2026-04-29 17:15 | 50.47613 | 19.03893 | 1292 ft | 148 kts | 84° |
| 2026-04-29 17:15 | 50.47609 | 19.05495 | 1076 ft | 145 kts | 84° |
| 2026-04-29 17:16 | 50.47606 | 19.07051 | 1000 ft | 129 kts | 91° |
| 2026-04-29 17:16 | 50.47599 | 19.08118 | 996 ft | 67 kts | 90° |
| 2026-04-29 17:16 | 50.47599 | 19.08672 | 999 ft | 45 kts | 90° |
| 2026-04-29 17:16 | 50.47598 | 19.09103 | 1001 ft | 36 kts | 90° |
| 2026-04-29 17:17 | 50.47590 | 19.09356 | 999 ft | 13 kts | 121° |
| 2026-04-29 17:17 | 50.47506 | 19.09391 | 1000 ft | 13 kts | 181° |
| 2026-04-29 17:17 | 50.47418 | 19.09391 | 999 ft | 13 kts | 180° |
| 2026-04-29 17:17 | 50.47332 | 19.09387 | 1003 ft | 12 kts | 182° |
| 2026-04-29 17:18 | 50.47250 | 19.09377 | 1000 ft | 12 kts | 208° |
| 2026-04-29 17:18 | 50.47231 | 19.09257 | 1003 ft | 12 kts | 270° |
| 2026-04-29 17:18 | 50.47231 | 19.09131 | 997 ft | 11 kts | 270° |
| 2026-04-29 17:18 | 50.47231 | 19.08983 | 1001 ft | 17 kts | 270° |
| 2026-04-29 17:19 | 50.47231 | 19.08771 | 1003 ft | 20 kts | 270° |
| 2026-04-29 17:19 | 50.47232 | 19.08558 | 1001 ft | 19 kts | 270° |
| 2026-04-29 17:19 | 50.47232 | 19.08353 | 997 ft | 19 kts | 270° |
| 2026-04-29 17:19 | 50.47233 | 19.08154 | 999 ft | 18 kts | 270° |
| 2026-04-29 17:20 | 50.47233 | 19.07961 | 1002 ft | 17 kts | 270° |
| 2026-04-29 17:20 | 50.47234 | 19.07778 | 1000 ft | 17 kts | 270° |
| 2026-04-29 17:20 | 50.47234 | 19.07596 | 1000 ft | 16 kts | 270° |
| 2026-04-29 17:20 | 50.47235 | 19.07425 | 1002 ft | 15 kts | 270° |
| 2026-04-29 17:21 | 50.47233 | 19.07298 | 1002 ft | 6 kts | 253° |
| 2026-04-29 17:21 | 50.47196 | 19.07279 | 997 ft | 6 kts | 180° |
| 2026-04-29 17:21 | 50.47183 | 19.07279 | 1000 ft | 0 kts | 180° |
| 2026-04-29 17:21 | 50.47180 | 19.07279 | 999 ft | 0 kts | 180° |
| 2026-04-29 17:22 | 50.47179 | 19.07279 | 999 ft | 0 kts | 180° |